createdAt,value
2022-09-26T00:01:25.685Z,16.34
2022-09-26T00:03:56.032Z,16.28
2022-09-26T00:06:23.660Z,16.23
2022-09-26T00:08:51.875Z,16.14
2022-09-26T00:11:24.909Z,16.21
2022-09-26T00:13:55.369Z,16.18
2022-09-26T00:16:23.138Z,15.98
2022-09-26T00:18:52.472Z,16.03
2022-09-26T00:21:21.139Z,15.94
2022-09-26T00:23:48.870Z,15.97
2022-09-26T00:26:18.375Z,16.06
2022-09-26T00:28:46.216Z,16.11
2022-09-26T00:31:16.441Z,16.11
2022-09-26T00:33:44.586Z,16.00
2022-09-26T00:36:11.925Z,15.98
2022-09-26T00:38:39.683Z,16.02
2022-09-26T00:41:07.613Z,15.95
2022-09-26T00:43:41.056Z,15.97
2022-09-26T00:46:37.994Z,15.94
2022-09-26T00:49:24.190Z,15.85
2022-09-26T00:52:10.545Z,15.84
2022-09-26T00:54:41.375Z,15.81
2022-09-26T00:57:15.293Z,15.72
2022-09-26T00:59:48.822Z,15.75
2022-09-26T01:02:17.161Z,15.73
2022-09-26T01:04:46.501Z,15.63
2022-09-26T01:07:23.992Z,15.57
2022-09-26T01:09:52.334Z,15.62
2022-09-26T01:12:21.001Z,15.63
2022-09-26T01:14:52.296Z,15.58
2022-09-26T01:17:20.538Z,15.47
2022-09-26T01:20:10.128Z,15.43
2022-09-26T01:22:52.568Z,15.51
2022-09-26T01:25:37.550Z,15.42
2022-09-26T01:28:29.122Z,15.49
2022-09-26T01:31:11.601Z,15.57
2022-09-26T01:33:45.816Z,15.53
2022-09-26T01:36:23.755Z,15.53
2022-09-26T01:39:28.685Z,15.49
2022-09-26T01:42:14.294Z,15.51
2022-09-26T01:44:57.591Z,15.48
2022-09-26T01:47:51.211Z,15.43
2022-09-26T01:50:37.154Z,15.44
2022-09-26T01:53:22.744Z,15.33
2022-09-26T01:55:59.317Z,15.37
2022-09-26T01:58:37.535Z,15.28
2022-09-26T02:01:10.472Z,15.37
2022-09-26T02:03:45.530Z,15.44
2022-09-26T02:06:19.262Z,15.50
2022-09-26T02:08:52.007Z,15.29
2022-09-26T02:11:19.970Z,15.32
2022-09-26T02:13:58.978Z,15.26
2022-09-26T02:16:32.114Z,15.27
2022-09-26T02:19:30.137Z,15.07
2022-09-26T02:21:58.682Z,15.09
2022-09-26T02:24:26.212Z,14.99
2022-09-26T02:26:54.121Z,14.91
2022-09-26T02:29:21.641Z,15.00
2022-09-26T02:32:02.459Z,14.89
2022-09-26T02:34:30.100Z,14.96
2022-09-26T02:36:59.376Z,15.02
2022-09-26T02:39:26.667Z,14.95
2022-09-26T02:42:03.098Z,14.92
2022-09-26T02:45:02.372Z,14.86
2022-09-26T02:47:29.543Z,14.81
2022-09-26T02:50:08.596Z,14.80
2022-09-26T02:52:45.170Z,14.76
2022-09-26T02:55:22.396Z,14.74
2022-09-26T02:58:20.823Z,14.75
2022-09-26T03:00:53.002Z,14.74
2022-09-26T03:03:35.575Z,15.91
2022-09-26T03:06:06.372Z,16.74
2022-09-26T03:08:39.482Z,17.74
2022-09-26T03:11:09.564Z,17.81
2022-09-26T03:13:40.123Z,17.24
2022-09-26T03:16:10.225Z,17.59
2022-09-26T03:18:58.495Z,17.39
2022-09-26T03:21:27.544Z,16.84
2022-09-26T03:23:55.029Z,15.96
2022-09-26T03:26:22.884Z,16.80
2022-09-26T03:28:51.746Z,17.62
2022-09-26T03:31:20.418Z,17.94
2022-09-26T03:33:48.746Z,17.65
2022-09-26T03:36:16.224Z,17.46
2022-09-26T03:38:44.114Z,17.26
2022-09-26T03:41:11.525Z,17.26
2022-09-26T03:43:38.805Z,16.27
2022-09-26T03:46:07.568Z,15.72
2022-09-26T03:48:34.844Z,15.59
2022-09-26T03:51:07.705Z,15.38
2022-09-26T03:53:37.805Z,15.34
2022-09-26T03:56:13.796Z,15.24
2022-09-26T03:58:42.773Z,15.26
2022-09-26T04:01:13.355Z,15.22
2022-09-26T04:14:10.458Z,15.05
2022-09-26T04:16:38.937Z,14.99
2022-09-26T04:19:07.181Z,14.91
2022-09-26T04:24:31.048Z,15.06
2022-09-26T04:27:01.845Z,15.03
2022-09-26T04:29:30.966Z,15.15
2022-09-26T04:31:58.606Z,15.22
2022-09-26T04:38:06.550Z,14.99
2022-09-26T04:40:38.350Z,14.99
2022-09-26T04:46:50.517Z,15.19
2022-09-26T04:53:06.445Z,16.14
2022-09-26T04:55:33.986Z,15.69
2022-09-26T05:01:48.249Z,15.45
2022-09-26T05:04:17.152Z,16.69
2022-09-26T05:06:44.946Z,16.06
2022-09-26T05:09:12.998Z,15.61
2022-09-26T05:11:40.875Z,15.52
2022-09-26T05:14:08.360Z,15.42
2022-09-26T05:16:36.041Z,15.30
2022-09-26T05:19:03.704Z,15.41
2022-09-26T05:21:31.587Z,15.37
2022-09-26T05:23:58.992Z,15.42
2022-09-26T05:26:47.827Z,15.48
2022-09-26T05:29:15.691Z,15.45
2022-09-26T05:31:43.183Z,15.52
2022-09-26T05:34:16.832Z,15.46
2022-09-26T05:36:47.314Z,15.48
2022-09-26T05:39:14.950Z,15.48
2022-09-26T05:41:42.475Z,15.39
2022-09-26T05:44:12.090Z,15.46
2022-09-26T05:46:39.492Z,15.53
2022-09-26T05:49:07.016Z,15.59
2022-09-26T05:51:34.636Z,15.58
2022-09-26T05:54:02.189Z,15.62
2022-09-26T05:56:29.898Z,15.65
2022-09-26T05:58:57.361Z,15.66
2022-09-26T06:01:24.986Z,15.66
2022-09-26T06:03:52.478Z,15.80
2022-09-26T06:06:20.160Z,15.85
2022-09-26T06:08:48.893Z,15.89
2022-09-26T06:11:19.612Z,16.01
2022-09-26T06:13:47.318Z,16.09
2022-09-26T06:16:20.846Z,16.21
2022-09-26T06:18:49.858Z,16.34
2022-09-26T06:21:18.669Z,16.46
2022-09-26T06:23:46.675Z,16.60
2022-09-26T06:26:25.496Z,16.69
2022-09-26T06:28:57.123Z,16.76
2022-09-26T06:31:24.758Z,16.83
2022-09-26T06:33:52.542Z,16.90
2022-09-26T06:36:21.037Z,16.94
2022-09-26T06:38:49.285Z,16.94
2022-09-26T06:41:17.292Z,17.07
2022-09-26T06:43:48.377Z,17.07
2022-09-26T06:46:16.669Z,17.09
2022-09-26T06:48:44.318Z,17.06
2022-09-26T06:51:11.716Z,17.07
2022-09-26T06:53:39.326Z,17.16
2022-09-26T06:56:06.930Z,17.07
2022-09-26T06:58:34.531Z,17.05
2022-09-26T07:01:02.940Z,16.96
2022-09-26T07:03:30.537Z,17.03
2022-09-26T07:05:58.332Z,17.03
2022-09-26T07:08:50.089Z,17.10
2022-09-26T07:11:35.176Z,17.19
2022-09-26T07:14:02.386Z,17.19
2022-09-26T07:16:30.447Z,17.40
2022-09-26T07:18:58.029Z,17.49
2022-09-26T07:21:25.510Z,17.55
2022-09-26T07:23:57.268Z,17.65
2022-09-26T07:26:24.769Z,17.80
2022-09-26T07:28:54.778Z,17.86
2022-09-26T07:31:23.137Z,17.81
2022-09-26T07:33:51.021Z,17.82
2022-09-26T07:36:18.722Z,17.87
2022-09-26T07:38:49.430Z,17.96
2022-09-26T07:41:18.118Z,18.16
2022-09-26T07:46:33.381Z,18.19
2022-09-26T07:49:00.796Z,18.25
2022-09-26T07:51:28.258Z,18.31
2022-09-26T07:53:55.633Z,18.42
2022-09-26T07:56:22.913Z,18.45
2022-09-26T07:58:50.427Z,18.40
2022-09-26T08:01:18.014Z,18.36
2022-09-26T08:03:47.037Z,18.36
2022-09-26T08:06:14.454Z,18.38
2022-09-26T08:08:42.096Z,18.46
2022-09-26T08:11:15.545Z,18.53
2022-09-26T08:13:43.712Z,18.48
2022-09-26T08:16:12.734Z,18.34
2022-09-26T08:18:40.286Z,18.34
2022-09-26T08:21:07.679Z,18.35
2022-09-26T08:23:35.250Z,18.45
2022-09-26T08:26:04.789Z,18.46
2022-09-26T08:28:36.342Z,18.47
2022-09-26T08:31:05.366Z,18.53
2022-09-26T08:33:35.388Z,18.53
2022-09-26T08:36:08.442Z,18.53
2022-09-26T08:38:36.541Z,18.52
2022-09-26T08:41:28.382Z,18.55
2022-09-26T08:44:06.343Z,18.61
2022-09-26T08:46:55.393Z,18.65
2022-09-26T08:49:55.118Z,18.68
2022-09-26T08:52:45.009Z,18.75
2022-09-26T08:55:24.224Z,18.79
2022-09-26T08:58:00.412Z,18.88
2022-09-26T09:00:37.000Z,19.07
2022-09-26T09:03:13.850Z,19.21
2022-09-26T09:05:50.949Z,19.33
2022-09-26T09:08:34.772Z,19.47
2022-09-26T09:11:11.304Z,19.40
2022-09-26T09:13:38.653Z,19.70
2022-09-26T09:16:19.806Z,19.98
2022-09-26T09:18:52.838Z,20.41
2022-09-26T09:21:23.212Z,20.38
2022-09-26T09:23:53.574Z,20.15
2022-09-26T09:29:49.473Z,20.15
2022-09-26T09:32:27.561Z,20.18
2022-09-26T09:34:56.219Z,20.42
2022-09-26T09:37:36.841Z,20.57
2022-09-26T09:40:31.814Z,20.69
2022-09-26T09:43:06.079Z,20.70
2022-09-26T09:45:48.427Z,21.03
2022-09-26T09:48:16.559Z,21.26
2022-09-26T09:51:05.616Z,21.51
2022-09-26T09:53:45.073Z,21.25
2022-09-26T09:56:24.593Z,21.12
2022-09-26T09:59:19.784Z,21.13
2022-09-26T10:01:55.525Z,21.13
2022-09-26T10:04:28.758Z,21.12
2022-09-26T10:06:56.173Z,21.02
2022-09-26T10:09:39.658Z,21.00
2022-09-26T10:12:20.944Z,21.28
2022-09-26T10:14:54.917Z,21.61
2022-09-26T10:17:24.084Z,21.51
2022-09-26T10:19:51.740Z,21.52
2022-09-26T10:22:33.060Z,21.46
2022-09-26T10:25:06.371Z,21.58
2022-09-26T10:27:39.643Z,21.24
2022-09-26T10:30:19.423Z,21.08
2022-09-26T10:32:55.465Z,21.02
2022-09-26T10:35:27.237Z,20.92
2022-09-26T10:38:18.713Z,20.97
2022-09-26T10:40:53.578Z,20.88
2022-09-26T10:43:22.779Z,20.79
2022-09-26T10:45:54.389Z,20.74
2022-09-26T10:48:26.246Z,20.70
2022-09-26T10:50:56.062Z,20.73
2022-09-26T10:53:23.755Z,20.72
2022-09-26T10:55:59.090Z,20.68
2022-09-26T10:58:28.808Z,20.73
2022-09-26T11:00:59.117Z,20.73
2022-09-26T11:03:45.786Z,20.69
2022-09-26T11:06:36.117Z,20.72
2022-09-26T11:09:04.738Z,20.73
2022-09-26T11:11:36.344Z,20.70
2022-09-26T11:14:06.363Z,20.72
2022-09-26T11:16:54.948Z,20.74
2022-09-26T11:19:54.844Z,20.76
2022-09-26T11:22:36.643Z,20.75
2022-09-26T11:25:14.754Z,20.75
2022-09-26T11:28:00.710Z,20.76
2022-09-26T11:30:29.941Z,20.76
2022-09-26T11:33:00.085Z,20.75
2022-09-26T11:35:54.394Z,20.78
2022-09-26T11:38:33.910Z,20.77
2022-09-26T11:41:39.724Z,20.73
2022-09-26T11:44:39.634Z,20.70
2022-09-26T11:47:13.889Z,20.70
2022-09-26T11:50:09.177Z,20.69
2022-09-26T11:52:46.879Z,20.68
2022-09-26T11:55:16.556Z,20.70
2022-09-26T11:57:50.124Z,20.76
2022-09-26T12:00:23.798Z,20.79
2022-09-26T12:03:31.608Z,20.84
2022-09-26T12:06:24.048Z,20.94
2022-09-26T12:09:27.237Z,21.05
2022-09-26T12:12:13.584Z,21.27
2022-09-26T12:15:05.063Z,21.13
2022-09-26T12:17:33.465Z,21.27
2022-09-26T12:20:14.187Z,21.38
2022-09-26T12:22:50.927Z,21.31
2022-09-26T12:25:37.128Z,21.23
2022-09-26T12:28:15.327Z,21.17
2022-09-26T12:30:57.175Z,21.25
2022-09-26T12:37:12.082Z,21.33
2022-09-26T12:39:51.716Z,21.39
2022-09-26T12:42:28.250Z,21.43
2022-09-26T12:45:10.954Z,21.38
2022-09-26T12:47:56.902Z,21.39
2022-09-26T12:50:24.197Z,21.39
2022-09-26T12:52:54.464Z,21.33
2022-09-26T12:55:55.539Z,21.26
2022-09-26T12:58:39.773Z,21.19
2022-09-26T13:01:31.877Z,21.15
2022-09-26T13:04:13.160Z,21.10
2022-09-26T13:07:07.588Z,21.10
2022-09-26T13:09:43.873Z,21.05
2022-09-26T13:12:21.420Z,21.00
2022-09-26T13:14:55.370Z,20.97
2022-09-26T13:17:33.492Z,20.97
2022-09-26T13:20:25.644Z,20.89
2022-09-26T13:23:02.730Z,20.81
2022-09-26T13:25:39.366Z,20.75
2022-09-26T13:28:11.836Z,20.69
2022-09-26T13:30:52.881Z,20.63
2022-09-26T13:33:23.110Z,20.60
2022-09-26T13:35:53.535Z,20.56
2022-09-26T13:38:39.218Z,20.53
2022-09-26T13:41:31.337Z,20.51
2022-09-26T13:44:20.310Z,20.49
2022-09-26T13:47:06.315Z,20.52
2022-09-26T13:50:17.109Z,20.52
2022-09-26T13:52:53.668Z,20.50
2022-09-26T13:55:22.377Z,20.43
2022-09-26T13:58:01.420Z,20.37
2022-09-26T14:00:29.140Z,20.31
2022-09-26T14:03:09.099Z,20.28
2022-09-26T14:05:42.515Z,20.13
2022-09-26T14:08:27.428Z,20.01
2022-09-26T14:11:06.893Z,19.96
2022-09-26T14:13:37.132Z,19.98
2022-09-26T14:16:27.477Z,19.90
2022-09-26T14:18:58.667Z,19.87
2022-09-26T14:21:39.237Z,19.90
2022-09-26T14:24:24.900Z,19.90
2022-09-26T14:27:10.373Z,19.93
2022-09-26T14:29:40.729Z,19.92
2022-09-26T14:32:08.189Z,19.96
2022-09-26T14:34:44.656Z,20.00
2022-09-26T14:37:24.400Z,20.01
2022-09-26T14:40:00.645Z,20.05
2022-09-26T14:42:36.398Z,20.04
2022-09-26T14:45:08.277Z,20.03
2022-09-26T14:47:47.170Z,19.99
2022-09-26T14:50:19.355Z,20.00
2022-09-26T14:52:55.533Z,20.05
2022-09-26T14:55:24.248Z,20.01
2022-09-26T14:57:51.846Z,20.02
2022-09-26T15:00:38.176Z,20.04
2022-09-26T15:03:13.058Z,20.06
2022-09-26T15:05:42.411Z,20.05
2022-09-26T15:08:26.937Z,20.05
2022-09-26T15:10:57.480Z,20.59
2022-09-26T15:13:45.165Z,21.21
2022-09-26T15:16:21.409Z,21.10
2022-09-26T15:18:55.198Z,21.30
2022-09-26T15:21:48.226Z,20.94
2022-09-26T15:24:28.002Z,20.76
2022-09-26T15:26:57.774Z,20.81
2022-09-26T15:29:26.132Z,20.78
2022-09-26T15:31:54.355Z,20.62
2022-09-26T15:34:28.531Z,20.44
2022-09-26T15:36:58.063Z,20.35
2022-09-26T15:39:31.588Z,20.44
2022-09-26T15:42:00.945Z,20.58
2022-09-26T15:44:28.451Z,20.25
2022-09-26T15:46:58.163Z,20.29
2022-09-26T15:49:26.711Z,20.55
2022-09-26T15:51:55.625Z,20.62
2022-09-26T15:54:31.808Z,20.68
2022-09-26T15:57:06.197Z,20.75
2022-09-26T15:59:41.140Z,20.62
2022-09-26T16:02:31.985Z,20.64
2022-09-26T16:08:42.173Z,20.66
2022-09-26T16:18:05.913Z,20.44
2022-09-26T16:28:44.887Z,19.54
2022-09-26T16:31:22.151Z,18.97
2022-09-26T16:44:54.132Z,18.19
2022-09-26T16:58:18.239Z,17.92
2022-09-26T17:00:49.989Z,17.93
2022-09-26T17:07:14.245Z,18.12
2022-09-26T17:09:42.782Z,17.91
2022-09-26T17:12:21.085Z,17.80
2022-09-26T17:14:51.287Z,17.76
2022-09-26T17:17:21.138Z,17.77
2022-09-26T17:19:51.035Z,17.66
2022-09-26T17:22:21.185Z,17.63
2022-09-26T17:24:49.322Z,17.54
2022-09-26T17:27:34.610Z,17.53
2022-09-26T17:30:04.469Z,18.34
2022-09-26T17:32:37.809Z,18.14
2022-09-26T17:35:14.370Z,17.79
2022-09-26T17:37:41.709Z,17.66
2022-09-26T17:40:17.601Z,17.48
2022-09-26T17:42:46.183Z,17.52
2022-09-26T17:45:14.127Z,17.52
2022-09-26T17:47:41.486Z,17.55
2022-09-26T17:50:17.186Z,17.55
2022-09-26T17:52:45.895Z,17.41
2022-09-26T17:55:13.350Z,17.51
2022-09-26T17:57:41.966Z,18.34
2022-09-26T18:00:14.412Z,18.97
2022-09-26T18:02:55.832Z,19.25
2022-09-26T18:05:29.964Z,18.93
2022-09-26T18:08:01.209Z,18.05
2022-09-26T18:10:29.596Z,17.58
2022-09-26T18:12:59.885Z,17.39
2022-09-26T18:15:28.979Z,17.38
2022-09-26T18:17:56.309Z,17.28
2022-09-26T18:20:36.406Z,17.09
2022-09-26T18:23:06.323Z,17.08
2022-09-26T18:25:35.264Z,16.95
2022-09-26T18:28:06.834Z,16.97
2022-09-26T18:30:34.268Z,16.99
2022-09-26T18:33:01.573Z,16.97
2022-09-26T18:35:29.131Z,16.94
2022-09-26T18:37:56.350Z,16.96
2022-09-26T18:40:25.885Z,16.95
2022-09-26T18:42:54.756Z,16.97
2022-09-26T18:45:27.735Z,16.85
2022-09-26T18:47:55.857Z,17.00
2022-09-26T18:50:43.310Z,17.01
2022-09-26T18:53:14.639Z,16.93
2022-09-26T18:55:42.975Z,16.81
2022-09-26T18:58:18.622Z,16.87
2022-09-26T19:00:46.304Z,16.86
2022-09-26T19:03:14.138Z,16.85
2022-09-26T19:05:42.518Z,16.89
2022-09-26T19:08:27.523Z,16.97
2022-09-26T19:10:55.925Z,16.92
2022-09-26T19:13:27.437Z,16.98
2022-09-26T19:15:55.844Z,17.03
2022-09-26T19:18:23.326Z,17.00
2022-09-26T19:20:54.282Z,16.96
2022-09-26T19:23:24.369Z,16.98
2022-09-26T19:25:52.830Z,16.84
2022-09-26T19:28:26.620Z,16.96
2022-09-26T19:30:55.382Z,16.84
2022-09-26T19:33:22.843Z,16.84
2022-09-26T19:35:50.566Z,16.74
2022-09-26T19:38:23.917Z,16.91
2022-09-26T19:40:52.093Z,16.96
2022-09-26T19:43:21.398Z,16.92
2022-09-26T19:45:52.085Z,16.83
2022-09-26T19:48:22.326Z,16.83
2022-09-26T19:50:51.563Z,16.92
2022-09-26T19:53:21.617Z,16.93
2022-09-26T19:55:49.439Z,16.83
2022-09-26T19:58:18.168Z,16.83
2022-09-26T20:00:50.238Z,16.75
2022-09-26T20:03:25.562Z,16.72
2022-09-26T20:05:52.921Z,16.76
2022-09-26T20:08:23.088Z,16.80
2022-09-26T20:10:51.328Z,16.76
2022-09-26T20:13:18.910Z,16.81
2022-09-26T20:15:47.172Z,16.71
2022-09-26T20:18:21.306Z,16.65
2022-09-26T20:20:53.242Z,16.63
2022-09-26T20:23:23.604Z,16.66
2022-09-26T20:25:53.860Z,16.65
2022-09-26T20:28:21.753Z,16.75
2022-09-26T20:30:49.580Z,16.79
2022-09-26T20:33:18.370Z,16.71
2022-09-26T20:35:47.318Z,16.65
2022-09-26T20:38:43.997Z,16.60
2022-09-26T20:41:32.583Z,16.73
2022-09-26T20:44:10.751Z,16.73
2022-09-26T20:46:40.655Z,16.76
2022-09-26T20:49:14.395Z,16.70
2022-09-26T20:51:43.652Z,16.69
2022-09-26T20:54:40.099Z,16.64
2022-09-26T20:57:08.269Z,16.75
2022-09-26T20:59:35.883Z,16.71
2022-09-26T21:02:36.958Z,16.67
2022-09-26T21:05:26.076Z,16.78
2022-09-26T21:08:29.821Z,16.70
2022-09-26T21:10:57.149Z,16.68
2022-09-26T21:13:24.686Z,16.58
2022-09-26T21:15:52.922Z,16.59
2022-09-26T21:18:28.471Z,16.59
2022-09-26T21:21:02.274Z,16.59
2022-09-26T21:23:30.973Z,16.55
2022-09-26T21:25:58.465Z,16.54
2022-09-26T21:28:27.920Z,16.65
2022-09-26T21:30:59.134Z,16.61
2022-09-26T21:33:26.489Z,16.67
2022-09-26T21:35:55.389Z,16.64
2022-09-26T21:38:25.630Z,16.58
2022-09-26T21:40:57.698Z,16.53
2022-09-26T21:43:29.164Z,16.45
2022-09-26T21:45:56.857Z,16.52
2022-09-26T21:48:24.504Z,16.54
2022-09-26T21:50:58.337Z,16.54
2022-09-26T21:53:38.615Z,16.65
2022-09-26T21:56:11.417Z,16.68
2022-09-26T21:58:41.285Z,16.67
2022-09-26T22:01:08.816Z,16.57
2022-09-26T22:03:36.799Z,16.63
2022-09-26T22:06:09.005Z,16.62
2022-09-26T22:08:38.122Z,16.72
2022-09-26T22:11:07.831Z,16.74
2022-09-26T22:13:37.130Z,16.71
2022-09-26T22:16:09.636Z,16.67
2022-09-26T22:18:38.127Z,16.72
2022-09-26T22:21:08.508Z,16.68
2022-09-26T22:23:37.055Z,16.73
2022-09-26T22:26:09.917Z,16.75
2022-09-26T22:28:41.303Z,16.75
2022-09-26T22:31:08.970Z,16.79
2022-09-26T22:33:36.599Z,16.74
2022-09-26T22:36:04.778Z,16.71
2022-09-26T22:38:36.268Z,16.67
2022-09-26T22:41:06.138Z,16.63
2022-09-26T22:43:34.473Z,16.68
2022-09-26T22:46:07.778Z,16.73
2022-09-26T22:48:38.018Z,16.79
2022-09-26T22:51:05.925Z,16.78
2022-09-26T22:53:36.333Z,16.80
2022-09-26T22:56:05.509Z,16.78
2022-09-26T22:58:36.900Z,16.68
2022-09-26T23:01:06.729Z,16.73
2022-09-26T23:03:34.987Z,16.73
2022-09-26T23:06:03.196Z,16.77
2022-09-26T23:08:32.527Z,16.75
2022-09-26T23:11:00.113Z,16.80
2022-09-26T23:13:28.962Z,16.80
2022-09-26T23:15:56.291Z,16.78
2022-09-26T23:18:23.943Z,16.73
2022-09-26T23:20:51.154Z,16.72
2022-09-26T23:23:18.369Z,16.65
2022-09-26T23:25:50.253Z,16.64
2022-09-26T23:28:17.714Z,16.75
2022-09-26T23:30:44.980Z,16.77
2022-09-26T23:33:12.316Z,16.83
2022-09-26T23:35:39.558Z,16.79
2022-09-26T23:38:06.854Z,16.79
2022-09-26T23:40:37.044Z,16.72
2022-09-26T23:43:04.473Z,16.72
2022-09-26T23:45:31.778Z,16.71
2022-09-26T23:47:59.077Z,16.71
2022-09-26T23:50:26.406Z,16.69
2022-09-26T23:52:53.696Z,16.66
2022-09-26T23:55:20.924Z,16.65
2022-09-26T23:57:48.174Z,16.68
